sensor_id;sensor_type;location;lat;lon;timestamp;pressure;altitude;pressure_sealevel;temperature;humidity
63665;BME280;49820;33.966;73.390;2022-11-20T06:32:38;79092.72;;;18.13;34.12
63665;BME280;49820;33.966;73.390;2022-11-20T06:35:08;79096.59;;;17.85;35.37
63665;BME280;49820;33.966;73.390;2022-11-20T06:37:37;79096.69;;;18.62;37.02
63665;BME280;49820;33.966;73.390;2022-11-20T06:40:07;79092.38;;;19.14;36.29
63665;BME280;49820;33.966;73.390;2022-11-20T06:42:36;79091.81;;;19.55;36.23
63665;BME280;49820;33.966;73.390;2022-11-20T06:45:05;79072.75;;;19.42;32.82
63665;BME280;49820;33.966;73.390;2022-11-20T06:47:35;79078.41;;;19.80;34.62
63665;BME280;49820;33.966;73.390;2022-11-20T06:50:04;79082.81;;;20.15;33.16
63665;BME280;49820;33.966;73.390;2022-11-20T06:52:33;79077.88;;;19.78;36.68
63665;BME280;49820;33.966;73.390;2022-11-20T06:55:08;79071.75;;;20.34;32.06
63665;BME280;49820;33.966;73.390;2022-11-20T06:57:38;79076.47;;;19.64;35.10
63665;BME280;49820;33.966;73.390;2022-11-20T07:00:07;79081.94;;;20.61;37.29
63665;BME280;49820;33.966;73.390;2022-11-20T07:02:36;79081.34;;;20.46;35.43
63665;BME280;49820;33.966;73.390;2022-11-20T07:05:05;79064.44;;;21.11;31.37
63665;BME280;49820;33.966;73.390;2022-11-20T07:07:34;79075.19;;;20.60;33.77
63665;BME280;49820;33.966;73.390;2022-11-20T07:10:03;79071.09;;;21.26;33.26
63665;BME280;49820;33.966;73.390;2022-11-20T07:12:33;79074.66;;;20.58;32.91
63665;BME280;49820;33.966;73.390;2022-11-20T07:15:02;79073.56;;;21.05;36.03
63665;BME280;49820;33.966;73.390;2022-11-20T07:17:31;79066.72;;;21.06;33.67
63665;BME280;49820;33.966;73.390;2022-11-20T07:20:00;79071.22;;;20.72;36.73
63665;BME280;49820;33.966;73.390;2022-11-20T07:22:29;79059.31;;;20.25;35.65
63665;BME280;49820;33.966;73.390;2022-11-20T07:24:58;79066.78;;;20.79;33.72
63665;BME280;49820;33.966;73.390;2022-11-20T07:27:27;79067.66;;;21.01;34.52
63665;BME280;49820;33.966;73.390;2022-11-20T07:29:56;79069.13;;;21.76;32.42
63665;BME280;49820;33.966;73.390;2022-11-20T07:32:25;79060.53;;;21.84;35.85
63665;BME280;49820;33.966;73.390;2022-11-20T07:34:55;79057.69;;;20.97;32.36
63665;BME280;49820;33.966;73.390;2022-11-20T07:37:24;79042.72;;;21.36;34.01
63665;BME280;49820;33.966;73.390;2022-11-20T07:39:53;79044.47;;;21.42;33.55
63665;BME280;49820;33.966;73.390;2022-11-20T07:42:22;79053.94;;;20.37;33.96
63665;BME280;49820;33.966;73.390;2022-11-20T07:44:53;79052.44;;;20.80;34.13
63665;BME280;49820;33.966;73.390;2022-11-20T07:47:21;79049.91;;;20.76;34.88
63665;BME280;49820;33.966;73.390;2022-11-20T07:49:50;79040.31;;;21.05;34.58
63665;BME280;49820;33.966;73.390;2022-11-20T07:52:19;79045.09;;;20.91;33.89
63665;BME280;49820;33.966;73.390;2022-11-20T07:54:48;79033.81;;;21.63;30.91
63665;BME280;49820;33.966;73.390;2022-11-20T07:57:16;79041.63;;;21.18;30.90
63665;BME280;49820;33.966;73.390;2022-11-20T07:59:50;79042.94;;;21.70;33.64
63665;BME280;49820;33.966;73.390;2022-11-20T08:02:19;79029.75;;;21.11;33.28
63665;BME280;49820;33.966;73.390;2022-11-20T08:04:48;79043.28;;;21.39;32.49
63665;BME280;49820;33.966;73.390;2022-11-20T08:07:17;79035.03;;;22.15;30.49
63665;BME280;49820;33.966;73.390;2022-11-20T08:09:47;79026.41;;;21.61;29.46
63665;BME280;49820;33.966;73.390;2022-11-20T08:12:20;79021.91;;;20.80;29.02
63665;BME280;49820;33.966;73.390;2022-11-20T08:15:09;79014.75;;;20.87;32.03
63665;BME280;49820;33.966;73.390;2022-11-20T08:17:40;79029.22;;;20.96;29.77
63665;BME280;49820;33.966;73.390;2022-11-20T08:20:23;79024.72;;;20.25;28.68
63665;BME280;49820;33.966;73.390;2022-11-20T08:22:52;79039.84;;;20.75;30.32
63665;BME280;49820;33.966;73.390;2022-11-20T08:26:11;79016.34;;;20.56;30.43
63665;BME280;49820;33.966;73.390;2022-11-20T08:28:39;79017.84;;;21.31;30.30
63665;BME280;49820;33.966;73.390;2022-11-20T08:31:08;79020.28;;;21.74;26.48
63665;BME280;49820;33.966;73.390;2022-11-20T08:33:37;79023.91;;;21.57;27.61
63665;BME280;49820;33.966;73.390;2022-11-20T08:36:07;79001.72;;;21.02;27.13
63665;BME280;49820;33.966;73.390;2022-11-20T08:38:36;79009.53;;;20.70;26.57
63665;BME280;49820;33.966;73.390;2022-11-20T08:41:05;79015.28;;;19.69;28.45
63665;BME280;49820;33.966;73.390;2022-11-20T08:43:57;79016.06;;;19.80;28.90
63665;BME280;49820;33.966;73.390;2022-11-20T08:46:28;78997.91;;;20.84;28.21
63665;BME280;49820;33.966;73.390;2022-11-20T08:49:00;79003.09;;;20.50;29.52
63665;BME280;49820;33.966;73.390;2022-11-20T08:51:29;79010.03;;;20.47;26.49
63665;BME280;49820;33.966;73.390;2022-11-20T08:53:58;79008.41;;;20.52;29.86
63665;BME280;49820;33.966;73.390;2022-11-20T08:56:27;79011.50;;;20.04;30.96
63665;BME280;49820;33.966;73.390;2022-11-20T08:58:56;78994.81;;;19.58;29.92
63665;BME280;49820;33.966;73.390;2022-11-20T09:01:45;79006.31;;;19.58;34.37
63665;BME280;49820;33.966;73.390;2022-11-20T09:04:14;78992.91;;;19.27;32.30
63665;BME280;49820;33.966;73.390;2022-11-20T09:06:43;78990.22;;;19.12;31.69
63665;BME280;49820;33.966;73.390;2022-11-20T09:09:12;79008.22;;;18.74;31.30
63665;BME280;49820;33.966;73.390;2022-11-20T09:11:41;79001.44;;;18.75;31.35
63665;BME280;49820;33.966;73.390;2022-11-20T09:14:10;78993.97;;;19.04;31.35
63665;BME280;49820;33.966;73.390;2022-11-20T09:16:38;78987.19;;;17.84;33.25
63665;BME280;49820;33.966;73.390;2022-11-20T09:19:07;78996.84;;;18.10;34.26
63665;BME280;49820;33.966;73.390;2022-11-20T09:21:56;78990.38;;;17.88;32.85
63665;BME280;49820;33.966;73.390;2022-11-20T09:24:45;78982.69;;;17.30;35.57
63665;BME280;49820;33.966;73.390;2022-11-20T09:27:14;78977.88;;;17.16;33.30
63665;BME280;49820;33.966;73.390;2022-11-20T09:29:43;78987.09;;;16.71;34.04
63665;BME280;49820;33.966;73.390;2022-11-20T09:32:12;78989.66;;;16.39;37.48
63665;BME280;49820;33.966;73.390;2022-11-20T09:34:41;79001.50;;;16.47;36.64
63665;BME280;49820;33.966;73.390;2022-11-20T09:37:10;78985.91;;;16.85;36.12
63665;BME280;49820;33.966;73.390;2022-11-20T09:39:39;78988.09;;;16.28;36.71
63665;BME280;49820;33.966;73.390;2022-11-20T09:48:18;78989.31;;;15.95;38.01
63665;BME280;49820;33.966;73.390;2022-11-20T09:54:21;78960.00;;;16.56;35.26
63665;BME280;49820;33.966;73.390;2022-11-20T09:57:17;78981.56;;;16.92;37.17
63665;BME280;49820;33.966;73.390;2022-11-20T10:00:10;78986.56;;;16.50;37.42
63665;BME280;49820;33.966;73.390;2022-11-20T10:02:48;78986.00;;;16.47;37.63
63665;BME280;49820;33.966;73.390;2022-11-20T10:05:31;78989.44;;;15.91;39.14
63665;BME280;49820;33.966;73.390;2022-11-20T10:10:56;78986.56;;;16.14;38.60
63665;BME280;49820;33.966;73.390;2022-11-20T10:19:32;78975.03;;;16.70;37.66
63665;BME280;49820;33.966;73.390;2022-11-20T10:30:42;78975.78;;;17.50;34.51
63665;BME280;49820;33.966;73.390;2022-11-20T10:33:21;78974.94;;;17.05;35.77
63665;BME280;49820;33.966;73.390;2022-11-20T10:35:57;78969.84;;;17.14;36.94
63665;BME280;49820;33.966;73.390;2022-11-20T10:38:39;78957.19;;;17.10;34.96
63665;BME280;49820;33.966;73.390;2022-11-20T10:41:38;78966.03;;;16.40;36.87
63665;BME280;49820;33.966;73.390;2022-11-20T10:44:17;78958.81;;;15.82;37.42
63665;BME280;49820;33.966;73.390;2022-11-20T10:47:05;78955.94;;;15.11;37.37
63665;BME280;49820;33.966;73.390;2022-11-20T10:49:39;78955.97;;;14.72;38.58
63665;BME280;49820;33.966;73.390;2022-11-20T11:00:43;78970.03;;;11.95;44.51
63665;BME280;49820;33.966;73.390;2022-11-20T11:03:28;78976.63;;;12.00;42.70
63665;BME280;49820;33.966;73.390;2022-11-20T11:06:07;78968.34;;;11.52;43.98
63665;BME280;49820;33.966;73.390;2022-11-20T11:08:39;78985.03;;;11.24;46.19
63665;BME280;49820;33.966;73.390;2022-11-20T11:13:44;78983.38;;;10.77;45.09
63665;BME280;49820;33.966;73.390;2022-11-20T11:16:25;78969.59;;;10.64;45.86
63665;BME280;49820;33.966;73.390;2022-11-20T11:19:04;78977.22;;;10.52;44.32
63665;BME280;49820;33.966;73.390;2022-11-20T11:21:33;78973.16;;;10.20;45.94
63665;BME280;49820;33.966;73.390;2022-11-20T11:24:04;78975.41;;;10.05;46.80
63665;BME280;49820;33.966;73.390;2022-11-20T11:29:25;78985.81;;;9.45;47.80
63665;BME280;49820;33.966;73.390;2022-11-20T11:32:07;78973.31;;;9.34;46.19
63665;BME280;49820;33.966;73.390;2022-11-20T11:34:37;78979.56;;;9.18;48.37
63665;BME280;49820;33.966;73.390;2022-11-20T11:37:22;78980.63;;;8.92;49.77
63665;BME280;49820;33.966;73.390;2022-11-20T11:39:52;78979.72;;;8.65;50.59
63665;BME280;49820;33.966;73.390;2022-11-20T11:42:50;78983.97;;;8.46;52.68
63665;BME280;49820;33.966;73.390;2022-11-20T11:45:20;78983.97;;;8.43;50.73
63665;BME280;49820;33.966;73.390;2022-11-20T11:47:51;78979.97;;;8.45;50.01
63665;BME280;49820;33.966;73.390;2022-11-20T11:50:26;78984.31;;;8.68;49.62
63665;BME280;49820;33.966;73.390;2022-11-20T11:53:17;78971.69;;;8.67;49.66
63665;BME280;49820;33.966;73.390;2022-11-20T11:55:58;78975.81;;;8.58;51.98
63665;BME280;49820;33.966;73.390;2022-11-20T12:01:04;78979.56;;;8.24;53.48
63665;BME280;49820;33.966;73.390;2022-11-20T12:03:38;78961.81;;;8.06;55.33
63665;BME280;49820;33.966;73.390;2022-11-20T12:06:18;78979.81;;;8.03;54.40
63665;BME280;49820;33.966;73.390;2022-11-20T12:09:04;78985.38;;;7.85;55.56
63665;BME280;49820;33.966;73.390;2022-11-20T12:11:47;78986.13;;;7.76;56.98
63665;BME280;49820;33.966;73.390;2022-11-20T12:16:58;78982.59;;;7.32;58.91
63665;BME280;49820;33.966;73.390;2022-11-20T12:19:33;78975.25;;;7.37;55.50
63665;BME280;49820;33.966;73.390;2022-11-20T12:22:15;78985.09;;;7.46;56.22
63665;BME280;49820;33.966;73.390;2022-11-20T12:28:04;78990.13;;;7.09;58.20
63665;BME280;49820;33.966;73.390;2022-11-20T12:30:55;78987.97;;;7.26;57.16
63665;BME280;49820;33.966;73.390;2022-11-20T12:42:17;78991.97;;;7.25;55.60
63665;BME280;49820;33.966;73.390;2022-11-20T12:48:36;78991.25;;;7.31;57.57
63665;BME280;49820;33.966;73.390;2022-11-20T12:51:34;79004.66;;;7.16;56.96
63665;BME280;49820;33.966;73.390;2022-11-20T13:08:23;79000.06;;;7.13;57.43
63665;BME280;49820;33.966;73.390;2022-11-20T13:10:57;79009.44;;;7.02;58.00
63665;BME280;49820;33.966;73.390;2022-11-20T13:19:14;79006.81;;;6.98;58.94
63665;BME280;49820;33.966;73.390;2022-11-20T13:21:46;78986.84;;;7.05;58.63
63665;BME280;49820;33.966;73.390;2022-11-20T13:27:03;79014.22;;;6.85;61.45
63665;BME280;49820;33.966;73.390;2022-11-20T13:29:37;79015.03;;;6.65;61.05
63665;BME280;49820;33.966;73.390;2022-11-20T13:35:02;79002.59;;;6.45;62.57
63665;BME280;49820;33.966;73.390;2022-11-20T13:37:34;79003.41;;;6.20;62.80
63665;BME280;49820;33.966;73.390;2022-11-20T13:42:51;78972.28;;;6.12;60.56
63665;BME280;49820;33.966;73.390;2022-11-20T13:45:29;79019.19;;;6.44;61.50
63665;BME280;49820;33.966;73.390;2022-11-20T13:48:22;79009.13;;;6.59;59.49
63665;BME280;49820;33.966;73.390;2022-11-20T13:56:22;78970.34;;;6.02;62.98
63665;BME280;49820;33.966;73.390;2022-11-20T13:59:06;78994.72;;;6.31;61.53
63665;BME280;49820;33.966;73.390;2022-11-20T14:01:45;78997.44;;;6.17;63.82
63665;BME280;49820;33.966;73.390;2022-11-20T14:04:19;78973.75;;;5.89;63.13
63665;BME280;49820;33.966;73.390;2022-11-20T14:06:51;79015.34;;;6.17;62.89
63665;BME280;49820;33.966;73.390;2022-11-20T14:09:38;79011.41;;;6.16;65.04
63665;BME280;49820;33.966;73.390;2022-11-20T14:12:20;79013.34;;;6.23;63.63
63665;BME280;49820;33.966;73.390;2022-11-20T14:14:52;79016.09;;;6.05;65.53
63665;BME280;49820;33.966;73.390;2022-11-20T14:17:24;78999.63;;;5.82;64.62
63665;BME280;49820;33.966;73.390;2022-11-20T14:20:04;79014.19;;;5.83;64.75
63665;BME280;49820;33.966;73.390;2022-11-20T14:22:34;79007.53;;;5.84;64.23
63665;BME280;49820;33.966;73.390;2022-11-20T14:27:50;79004.31;;;5.69;64.56
63665;BME280;49820;33.966;73.390;2022-11-20T14:30:22;79007.72;;;5.50;65.72
63665;BME280;49820;33.966;73.390;2022-11-20T14:33:00;79004.38;;;5.57;67.72
63665;BME280;49820;33.966;73.390;2022-11-20T14:35:37;79026.81;;;5.81;63.25
63665;BME280;49820;33.966;73.390;2022-11-20T14:38:12;79011.66;;;5.53;65.30
63665;BME280;49820;33.966;73.390;2022-11-20T14:40:43;79000.50;;;5.30;66.62
63665;BME280;49820;33.966;73.390;2022-11-20T14:43:23;79021.03;;;5.27;68.65
63665;BME280;49820;33.966;73.390;2022-11-20T14:45:58;79031.03;;;5.11;69.85
63665;BME280;49820;33.966;73.390;2022-11-20T14:48:34;79028.38;;;5.01;68.85
63665;BME280;49820;33.966;73.390;2022-11-20T14:51:05;78988.09;;;4.55;69.53
63665;BME280;49820;33.966;73.390;2022-11-20T14:53:34;79009.25;;;4.66;70.28
63665;BME280;49820;33.966;73.390;2022-11-20T14:56:03;79005.28;;;4.50;72.40
63665;BME280;49820;33.966;73.390;2022-11-20T14:58:33;79019.16;;;4.55;72.56
63665;BME280;49820;33.966;73.390;2022-11-20T15:01:06;79018.53;;;4.50;71.85
63665;BME280;49820;33.966;73.390;2022-11-20T15:03:37;79015.88;;;4.46;72.73
63665;BME280;49820;33.966;73.390;2022-11-20T15:06:10;79027.78;;;4.45;73.04
63665;BME280;49820;33.966;73.390;2022-11-20T15:08:51;79029.09;;;4.50;72.12
63665;BME280;49820;33.966;73.390;2022-11-20T15:11:28;79018.53;;;4.34;69.71
63665;BME280;49820;33.966;73.390;2022-11-20T15:14:02;79031.72;;;4.38;70.85
63665;BME280;49820;33.966;73.390;2022-11-20T15:16:32;79031.75;;;4.36;72.11
63665;BME280;49820;33.966;73.390;2022-11-20T15:19:16;79011.91;;;4.25;71.65
63665;BME280;49820;33.966;73.390;2022-11-20T15:21:47;79016.53;;;4.47;66.23
63665;BME280;49820;33.966;73.390;2022-11-20T15:24:19;79014.56;;;4.43;68.27
63665;BME280;49820;33.966;73.390;2022-11-20T15:26:49;79025.78;;;4.50;68.55
63665;BME280;49820;33.966;73.390;2022-11-20T15:29:18;79023.81;;;4.60;67.80
63665;BME280;49820;33.966;73.390;2022-11-20T15:31:47;79025.09;;;4.90;60.36
63665;BME280;49820;33.966;73.390;2022-11-20T15:34:16;79021.09;;;5.09;57.55
63665;BME280;49820;33.966;73.390;2022-11-20T15:36:46;79018.38;;;5.31;54.75
63665;BME280;49820;33.966;73.390;2022-11-20T15:39:15;79010.44;;;5.29;54.40
63665;BME280;49820;33.966;73.390;2022-11-20T15:41:45;79011.66;;;5.57;52.98
63665;BME280;49820;33.966;73.390;2022-11-20T15:44:14;79023.59;;;5.58;54.65
63665;BME280;49820;33.966;73.390;2022-11-20T15:46:43;79003.81;;;5.32;55.30
63665;BME280;49820;33.966;73.390;2022-11-20T15:49:16;79013.72;;;5.40;56.94
63665;BME280;49820;33.966;73.390;2022-11-20T15:51:52;79009.09;;;5.34;57.24
63665;BME280;49820;33.966;73.390;2022-11-20T15:54:22;78992.66;;;4.97;60.55
63665;BME280;49820;33.966;73.390;2022-11-20T15:56:53;78997.34;;;4.67;64.09
63665;BME280;49820;33.966;73.390;2022-11-20T15:59:23;79013.22;;;4.52;66.83
63665;BME280;49820;33.966;73.390;2022-11-20T16:01:52;79016.53;;;4.47;69.17
63665;BME280;49820;33.966;73.390;2022-11-20T16:04:22;79019.84;;;4.33;71.02
63665;BME280;49820;33.966;73.390;2022-11-20T16:06:52;79037.03;;;4.26;73.50
63665;BME280;49820;33.966;73.390;2022-11-20T16:09:22;79031.09;;;4.05;73.99
63665;BME280;49820;33.966;73.390;2022-11-20T16:11:51;79007.28;;;3.93;75.97
63665;BME280;49820;33.966;73.390;2022-11-20T16:14:20;79003.94;;;3.82;74.33
63665;BME280;49820;33.966;73.390;2022-11-20T16:17:11;79030.41;;;4.07;73.28
63665;BME280;49820;33.966;73.390;2022-11-20T16:19:40;79019.81;;;3.91;72.82
63665;BME280;49820;33.966;73.390;2022-11-20T16:22:11;79022.50;;;4.05;70.36
63665;BME280;49820;33.966;73.390;2022-11-20T16:24:40;78999.34;;;3.89;70.53
63665;BME280;49820;33.966;73.390;2022-11-20T16:27:09;79015.19;;;3.99;70.13
63665;BME280;49820;33.966;73.390;2022-11-20T16:29:40;79007.28;;;3.95;68.45
63665;BME280;49820;33.966;73.390;2022-11-20T16:32:09;79017.19;;;3.99;68.13
63665;BME280;49820;33.966;73.390;2022-11-20T16:34:38;78999.34;;;3.95;66.33
63665;BME280;49820;33.966;73.390;2022-11-20T16:37:07;79021.16;;;4.08;68.20
63665;BME280;49820;33.966;73.390;2022-11-20T16:39:37;79018.50;;;3.96;70.41
63665;BME280;49820;33.966;73.390;2022-11-20T16:42:06;79003.94;;;3.76;71.51
63665;BME280;49820;33.966;73.390;2022-11-20T16:44:35;79004.63;;;3.93;66.96
63665;BME280;49820;33.966;73.390;2022-11-20T16:47:04;79007.28;;;4.54;58.77
63665;BME280;49820;33.966;73.390;2022-11-20T16:49:33;78980.19;;;4.45;60.76
63665;BME280;49820;33.966;73.390;2022-11-20T16:52:02;79014.47;;;5.00;54.21
63665;BME280;49820;33.966;73.390;2022-11-20T16:54:32;79010.50;;;5.01;53.44
63665;BME280;49820;33.966;73.390;2022-11-20T16:57:00;79020.44;;;4.98;56.23
63665;BME280;49820;33.966;73.390;2022-11-20T16:59:30;79009.91;;;4.68;58.75
63665;BME280;49820;33.966;73.390;2022-11-20T17:01:59;79002.56;;;4.99;53.71
63665;BME280;49820;33.966;73.390;2022-11-20T17:04:28;79009.88;;;4.88;55.50
63665;BME280;49820;33.966;73.390;2022-11-20T17:07:03;79011.22;;;4.69;56.33
63665;BME280;49820;33.966;73.390;2022-11-20T17:09:34;79002.00;;;4.54;57.88
63665;BME280;49820;33.966;73.390;2022-11-20T17:12:06;79002.00;;;4.46;57.10
63665;BME280;49820;33.966;73.390;2022-11-20T17:14:35;79025.13;;;4.68;58.18
63665;BME280;49820;33.966;73.390;2022-11-20T17:17:04;79027.09;;;4.71;57.37
63665;BME280;49820;33.966;73.390;2022-11-20T17:19:36;79011.91;;;4.59;57.93
63665;BME280;49820;33.966;73.390;2022-11-20T17:22:13;78980.81;;;4.40;57.95
63665;BME280;49820;33.966;73.390;2022-11-20T17:24:43;79009.88;;;4.94;55.92
63665;BME280;49820;33.966;73.390;2022-11-20T17:27:11;79009.25;;;4.66;55.38
63665;BME280;49820;33.966;73.390;2022-11-20T17:29:42;79001.94;;;4.72;55.06
63665;BME280;49820;33.966;73.390;2022-11-20T17:32:11;79001.28;;;4.84;55.77
63665;BME280;49820;33.966;73.390;2022-11-20T17:34:41;79008.59;;;4.57;60.86
63665;BME280;49820;33.966;73.390;2022-11-20T17:37:09;78992.75;;;4.37;62.14
63665;BME280;49820;33.966;73.390;2022-11-20T17:39:39;78984.13;;;4.30;59.21
63665;BME280;49820;33.966;73.390;2022-11-20T17:42:08;79009.25;;;4.39;63.75
63665;BME280;49820;33.966;73.390;2022-11-20T17:45:06;78997.34;;;4.22;63.17
63665;BME280;49820;33.966;73.390;2022-11-20T17:47:35;79005.31;;;4.12;65.38
63665;BME280;49820;33.966;73.390;2022-11-20T17:50:05;79001.34;;;4.13;63.93
63665;BME280;49820;33.966;73.390;2022-11-20T17:52:34;78987.44;;;4.14;61.16
63665;BME280;49820;33.966;73.390;2022-11-20T17:55:03;79011.91;;;4.37;59.89
63665;BME280;49820;33.966;73.390;2022-11-20T17:57:32;79013.88;;;4.49;57.75
63665;BME280;49820;33.966;73.390;2022-11-20T18:00:20;78999.34;;;4.36;57.89
63665;BME280;49820;33.966;73.390;2022-11-20T18:02:49;78996.03;;;4.51;55.63
63665;BME280;49820;33.966;73.390;2022-11-20T18:05:18;79005.22;;;4.89;53.63
63665;BME280;49820;33.966;73.390;2022-11-20T18:07:51;79006.56;;;4.86;52.58
63665;BME280;49820;33.966;73.390;2022-11-20T18:10:21;78995.97;;;4.80;51.20
63665;BME280;49820;33.966;73.390;2022-11-20T18:12:50;78980.16;;;4.53;53.79
63665;BME280;49820;33.966;73.390;2022-11-20T18:15:21;78990.06;;;4.49;53.08
63665;BME280;49820;33.966;73.390;2022-11-20T18:17:50;78986.13;;;4.36;54.21
63665;BME280;49820;33.966;73.390;2022-11-20T18:20:19;79005.94;;;4.59;53.07
63665;BME280;49820;33.966;73.390;2022-11-20T18:22:56;79003.97;;;4.47;54.83
63665;BME280;49820;33.966;73.390;2022-11-20T18:25:26;78968.94;;;4.16;54.25
63665;BME280;49820;33.966;73.390;2022-11-20T18:27:54;79008.63;;;4.37;56.13
63665;BME280;49820;33.966;73.390;2022-11-20T18:30:23;78983.47;;;4.40;56.63
63665;BME280;49820;33.966;73.390;2022-11-20T18:32:53;78990.09;;;4.16;59.47
63665;BME280;49820;33.966;73.390;2022-11-20T18:35:22;78998.69;;;4.11;60.38
63665;BME280;49820;33.966;73.390;2022-11-20T18:37:51;78993.41;;;4.45;56.54
63665;BME280;49820;33.966;73.390;2022-11-20T18:40:21;78984.81;;;4.33;57.36
63665;BME280;49820;33.966;73.390;2022-11-20T18:42:50;78974.25;;;4.29;55.91
63665;BME280;49820;33.966;73.390;2022-11-20T18:45:37;78979.50;;;4.43;54.33
63665;BME280;49820;33.966;73.390;2022-11-20T18:48:07;78966.97;;;4.29;55.26
63665;BME280;49820;33.966;73.390;2022-11-20T18:50:36;78992.72;;;4.59;53.27
63665;BME280;49820;33.966;73.390;2022-11-20T18:53:06;78973.56;;;4.44;55.37
63665;BME280;49820;33.966;73.390;2022-11-20T18:55:35;78980.84;;;4.38;58.39
63665;BME280;49820;33.966;73.390;2022-11-20T18:58:04;78970.91;;;4.14;59.03
63665;BME280;49820;33.966;73.390;2022-11-20T19:00:33;78889.66;;;3.35;58.37
63665;BME280;49820;33.966;73.390;2022-11-20T19:03:02;78961.03;;;3.96;57.54
63665;BME280;49820;33.966;73.390;2022-11-20T19:05:35;78970.94;;;4.28;57.71
63665;BME280;49820;33.966;73.390;2022-11-20T19:08:06;78938.53;;;4.38;52.14
63665;BME280;49820;33.966;73.390;2022-11-20T19:10:35;78953.72;;;4.53;55.63
63665;BME280;49820;33.966;73.390;2022-11-20T19:13:04;78946.44;;;4.52;53.80
63665;BME280;49820;33.966;73.390;2022-11-20T19:15:34;78941.16;;;4.44;54.92
63665;BME280;49820;33.966;73.390;2022-11-20T19:18:05;78950.38;;;4.59;54.44
63665;BME280;49820;33.966;73.390;2022-11-20T19:20:34;78947.75;;;4.55;52.90
63665;BME280;49820;33.966;73.390;2022-11-20T19:23:03;78944.38;;;4.79;52.27
63665;BME280;49820;33.966;73.390;2022-11-20T19:25:32;78947.69;;;4.73;53.23
63665;BME280;49820;33.966;73.390;2022-11-20T19:28:04;78920.03;;;4.30;54.91
63665;BME280;49820;33.966;73.390;2022-11-20T19:30:33;78937.88;;;4.29;56.50
63665;BME280;49820;33.966;73.390;2022-11-20T19:33:03;78939.84;;;4.37;54.90
63665;BME280;49820;33.966;73.390;2022-11-20T19:35:31;78940.50;;;4.37;55.07
63665;BME280;49820;33.966;73.390;2022-11-20T19:38:01;78925.28;;;4.40;55.11
63665;BME280;49820;33.966;73.390;2022-11-20T19:40:32;78896.25;;;3.99;56.13
63665;BME280;49820;33.966;73.390;2022-11-20T19:43:02;78925.97;;;4.26;54.51
63665;BME280;49820;33.966;73.390;2022-11-20T19:45:32;78914.75;;;4.26;53.51
63665;BME280;49820;33.966;73.390;2022-11-20T19:48:01;78920.03;;;4.26;54.50
63665;BME280;49820;33.966;73.390;2022-11-20T19:50:34;78908.81;;;4.13;56.12
63665;BME280;49820;33.966;73.390;2022-11-20T19:53:03;78928.63;;;4.12;58.47
63665;BME280;49820;33.966;73.390;2022-11-20T19:55:35;78916.75;;;3.95;57.56
63665;BME280;49820;33.966;73.390;2022-11-20T19:58:03;78907.50;;;3.73;59.86
63665;BME280;49820;33.966;73.390;2022-11-20T20:00:33;78918.06;;;3.83;58.21
63665;BME280;49820;33.966;73.390;2022-11-20T20:03:02;78904.84;;;3.90;57.45
63665;BME280;49820;33.966;73.390;2022-11-20T20:05:33;78921.38;;;3.94;56.93
63665;BME280;49820;33.966;73.390;2022-11-20T20:08:02;78918.03;;;4.32;52.73
63665;BME280;49820;33.966;73.390;2022-11-20T20:10:31;78883.03;;;4.09;55.00
63665;BME280;49820;33.966;73.390;2022-11-20T20:13:00;78912.72;;;4.44;52.77
63665;BME280;49820;33.966;73.390;2022-11-20T20:15:29;78886.28;;;4.30;51.53
63665;BME280;49820;33.966;73.390;2022-11-20T20:17:59;78896.81;;;4.54;51.88
63665;BME280;49820;33.966;73.390;2022-11-20T20:20:28;78905.47;;;4.37;53.81
63665;BME280;49820;33.966;73.390;2022-11-20T20:22:57;78889.66;;;4.04;56.00
63665;BME280;49820;33.966;73.390;2022-11-20T20:25:26;78894.28;;;4.00;55.07
63665;BME280;49820;33.966;73.390;2022-11-20T20:27:55;78881.75;;;3.80;56.34
63665;BME280;49820;33.966;73.390;2022-11-20T20:30:24;78883.09;;;3.73;57.58
63665;BME280;49820;33.966;73.390;2022-11-20T20:32:53;78877.81;;;3.65;58.48
63665;BME280;49820;33.966;73.390;2022-11-20T20:35:23;78900.16;;;4.39;54.73
63665;BME280;49820;33.966;73.390;2022-11-20T20:37:53;78873.72;;;4.35;54.04
63665;BME280;49820;33.966;73.390;2022-11-20T20:40:21;78862.53;;;4.16;55.54
63665;BME280;49820;33.966;73.390;2022-11-20T20:42:51;78892.22;;;4.45;53.17
63665;BME280;49820;33.966;73.390;2022-11-20T20:45:19;78882.34;;;4.29;53.44
63665;BME280;49820;33.966;73.390;2022-11-20T20:47:49;78874.44;;;4.17;52.35
63665;BME280;49820;33.966;73.390;2022-11-20T20:50:18;78873.75;;;4.25;53.11
63665;BME280;49820;33.966;73.390;2022-11-20T20:52:47;78882.38;;;4.09;54.91
63665;BME280;49820;33.966;73.390;2022-11-20T20:55:16;78871.16;;;3.86;55.18
63665;BME280;49820;33.966;73.390;2022-11-20T20:57:52;78873.16;;;3.79;55.48
63665;BME280;49820;33.966;73.390;2022-11-20T21:00:22;78862.59;;;3.61;56.34
63665;BME280;49820;33.966;73.390;2022-11-20T21:02:51;78872.50;;;3.77;55.42
63665;BME280;49820;33.966;73.390;2022-11-20T21:05:20;78873.81;;;3.96;52.92
63665;BME280;49820;33.966;73.390;2022-11-20T21:07:49;78858.63;;;3.76;55.43
63665;BME280;49820;33.966;73.390;2022-11-20T21:10:37;78883.06;;;3.83;54.85
63665;BME280;49820;33.966;73.390;2022-11-20T21:13:06;78821.66;;;3.46;54.36
63665;BME280;49820;33.966;73.390;2022-11-20T21:15:38;78879.75;;;4.03;52.72
63665;BME280;49820;33.966;73.390;2022-11-20T21:18:07;78877.09;;;3.82;54.87
63665;BME280;49820;33.966;73.390;2022-11-20T21:20:38;78858.63;;;3.89;52.98
63665;BME280;49820;33.966;73.390;2022-11-20T21:23:26;78846.09;;;3.73;53.14
63665;BME280;49820;33.966;73.390;2022-11-20T21:25:55;78853.31;;;3.91;53.02
63665;BME280;49820;33.966;73.390;2022-11-20T21:28:25;78863.88;;;3.91;53.02
63665;BME280;49820;33.966;73.390;2022-11-20T21:31:04;78854.03;;;3.73;53.25
63665;BME280;49820;33.966;73.390;2022-11-20T21:33:45;78877.09;;;4.01;53.68
63665;BME280;49820;33.966;73.390;2022-11-20T21:36:22;78838.19;;;3.57;52.88